sensor_id;sensor_type;location;lat;lon;timestamp;P1;durP1;ratioP1;P2;durP2;ratioP2
68806;SDS011;55800;54.272;18.558;2023-11-21T00:03:51;16.60;;;8.30;;
68806;SDS011;55800;54.272;18.558;2023-11-21T00:06:21;19.75;;;9.77;;
68806;SDS011;55800;54.272;18.558;2023-11-21T00:08:51;16.08;;;9.38;;
68806;SDS011;55800;54.272;18.558;2023-11-21T00:11:20;15.80;;;9.52;;
68806;SDS011;55800;54.272;18.558;2023-11-21T00:13:50;15.95;;;8.77;;
68806;SDS011;55800;54.272;18.558;2023-11-21T00:16:19;14.55;;;8.63;;
68806;SDS011;55800;54.272;18.558;2023-11-21T00:18:51;19.50;;;8.35;;
68806;SDS011;55800;54.272;18.558;2023-11-21T00:21:20;15.23;;;8.38;;
68806;SDS011;55800;54.272;18.558;2023-11-21T00:23:49;13.02;;;7.93;;
68806;SDS011;55800;54.272;18.558;2023-11-21T00:26:19;14.88;;;7.18;;
68806;SDS011;55800;54.272;18.558;2023-11-21T00:28:57;16.20;;;8.80;;
68806;SDS011;55800;54.272;18.558;2023-11-21T00:31:27;18.30;;;9.20;;
68806;SDS011;55800;54.272;18.558;2023-11-21T00:33:59;15.48;;;8.57;;
68806;SDS011;55800;54.272;18.558;2023-11-21T00:36:28;14.18;;;7.60;;
68806;SDS011;55800;54.272;18.558;2023-11-21T00:38:58;15.73;;;8.23;;
68806;SDS011;55800;54.272;18.558;2023-11-21T00:41:30;11.35;;;7.25;;
68806;SDS011;55800;54.272;18.558;2023-11-21T00:44:00;13.25;;;7.82;;
68806;SDS011;55800;54.272;18.558;2023-11-21T00:46:29;12.70;;;8.18;;
68806;SDS011;55800;54.272;18.558;2023-11-21T00:49:01;14.05;;;7.75;;
68806;SDS011;55800;54.272;18.558;2023-11-21T00:51:30;15.27;;;7.30;;
68806;SDS011;55800;54.272;18.558;2023-11-21T00:54:00;13.98;;;6.95;;
68806;SDS011;55800;54.272;18.558;2023-11-21T00:56:30;14.02;;;7.95;;
68806;SDS011;55800;54.272;18.558;2023-11-21T00:59:01;12.05;;;6.55;;
68806;SDS011;55800;54.272;18.558;2023-11-21T01:01:31;13.35;;;7.32;;
68806;SDS011;55800;54.272;18.558;2023-11-21T01:04:03;13.73;;;6.65;;
68806;SDS011;55800;54.272;18.558;2023-11-21T01:06:33;15.10;;;8.25;;
68806;SDS011;55800;54.272;18.558;2023-11-21T01:09:03;11.13;;;7.93;;
68806;SDS011;55800;54.272;18.558;2023-11-21T01:11:36;15.35;;;7.75;;
68806;SDS011;55800;54.272;18.558;2023-11-21T01:14:06;15.18;;;7.22;;
68806;SDS011;55800;54.272;18.558;2023-11-21T01:16:35;14.18;;;7.65;;
68806;SDS011;55800;54.272;18.558;2023-11-21T01:19:07;14.52;;;7.45;;
68806;SDS011;55800;54.272;18.558;2023-11-21T01:21:36;11.05;;;7.10;;
68806;SDS011;55800;54.272;18.558;2023-11-21T01:24:06;14.95;;;8.07;;
68806;SDS011;55800;54.272;18.558;2023-11-21T01:26:36;15.38;;;7.93;;
68806;SDS011;55800;54.272;18.558;2023-11-21T01:29:05;12.52;;;7.22;;
68806;SDS011;55800;54.272;18.558;2023-11-21T01:31:34;15.57;;;7.68;;
68806;SDS011;55800;54.272;18.558;2023-11-21T01:34:06;11.43;;;6.85;;
68806;SDS011;55800;54.272;18.558;2023-11-21T01:36:35;12.98;;;6.97;;
68806;SDS011;55800;54.272;18.558;2023-11-21T01:39:05;10.63;;;6.28;;
68806;SDS011;55800;54.272;18.558;2023-11-21T01:41:35;12.70;;;6.55;;
68806;SDS011;55800;54.272;18.558;2023-11-21T01:44:05;15.32;;;7.90;;
68806;SDS011;55800;54.272;18.558;2023-11-21T01:46:36;15.38;;;7.22;;
68806;SDS011;55800;54.272;18.558;2023-11-21T01:49:08;13.32;;;6.90;;
68806;SDS011;55800;54.272;18.558;2023-11-21T01:51:41;11.63;;;7.45;;
68806;SDS011;55800;54.272;18.558;2023-11-21T01:54:12;14.13;;;7.97;;
68806;SDS011;55800;54.272;18.558;2023-11-21T01:56:44;15.25;;;7.57;;
68806;SDS011;55800;54.272;18.558;2023-11-21T01:59:19;11.23;;;7.03;;
68806;SDS011;55800;54.272;18.558;2023-11-21T02:01:49;27.75;;;8.48;;
68806;SDS011;55800;54.272;18.558;2023-11-21T02:04:20;13.00;;;7.45;;
68806;SDS011;55800;54.272;18.558;2023-11-21T02:06:50;14.93;;;7.28;;
68806;SDS011;55800;54.272;18.558;2023-11-21T02:09:23;10.57;;;7.00;;
68806;SDS011;55800;54.272;18.558;2023-11-21T02:11:54;14.10;;;6.80;;
68806;SDS011;55800;54.272;18.558;2023-11-21T02:14:26;11.40;;;6.07;;
68806;SDS011;55800;54.272;18.558;2023-11-21T02:16:56;9.15;;;5.63;;
68806;SDS011;55800;54.272;18.558;2023-11-21T02:19:29;10.68;;;6.60;;
68806;SDS011;55800;54.272;18.558;2023-11-21T02:21:59;10.82;;;6.40;;
68806;SDS011;55800;54.272;18.558;2023-11-21T02:24:34;10.27;;;6.25;;
68806;SDS011;55800;54.272;18.558;2023-11-21T02:27:04;10.20;;;6.53;;
68806;SDS011;55800;54.272;18.558;2023-11-21T02:32:03;11.70;;;6.53;;
68806;SDS011;55800;54.272;18.558;2023-11-21T02:34:33;12.82;;;5.95;;
68806;SDS011;55800;54.272;18.558;2023-11-21T02:37:02;8.95;;;6.15;;
68806;SDS011;55800;54.272;18.558;2023-11-21T02:39:33;10.93;;;5.32;;
68806;SDS011;55800;54.272;18.558;2023-11-21T02:42:04;11.60;;;6.18;;
68806;SDS011;55800;54.272;18.558;2023-11-21T02:47:03;11.87;;;6.37;;
68806;SDS011;55800;54.272;18.558;2023-11-21T02:49:33;12.02;;;5.53;;
68806;SDS011;55800;54.272;18.558;2023-11-21T02:52:02;11.45;;;6.30;;
68806;SDS011;55800;54.272;18.558;2023-11-21T02:54:34;10.90;;;7.30;;
68806;SDS011;55800;54.272;18.558;2023-11-21T02:57:04;7.88;;;5.55;;
68806;SDS011;55800;54.272;18.558;2023-11-21T02:59:34;12.35;;;6.28;;
68806;SDS011;55800;54.272;18.558;2023-11-21T03:02:03;11.05;;;6.05;;
68806;SDS011;55800;54.272;18.558;2023-11-21T03:04:35;9.07;;;6.22;;
68806;SDS011;55800;54.272;18.558;2023-11-21T03:07:04;8.45;;;5.05;;
68806;SDS011;55800;54.272;18.558;2023-11-21T03:09:35;11.02;;;6.63;;
68806;SDS011;55800;54.272;18.558;2023-11-21T03:12:05;11.77;;;5.75;;
68806;SDS011;55800;54.272;18.558;2023-11-21T03:14:36;10.70;;;5.78;;
68806;SDS011;55800;54.272;18.558;2023-11-21T03:17:05;9.38;;;5.28;;
68806;SDS011;55800;54.272;18.558;2023-11-21T03:19:35;8.55;;;6.05;;
68806;SDS011;55800;54.272;18.558;2023-11-21T03:22:04;12.25;;;6.57;;
68806;SDS011;55800;54.272;18.558;2023-11-21T03:27:05;9.98;;;6.70;;
68806;SDS011;55800;54.272;18.558;2023-11-21T03:32:04;11.88;;;5.90;;
68806;SDS011;55800;54.272;18.558;2023-11-21T03:34:35;11.68;;;6.25;;
68806;SDS011;55800;54.272;18.558;2023-11-21T03:37:20;9.48;;;5.75;;
68806;SDS011;55800;54.272;18.558;2023-11-21T03:42:21;9.63;;;5.15;;
68806;SDS011;55800;54.272;18.558;2023-11-21T03:44:51;8.82;;;5.78;;
68806;SDS011;55800;54.272;18.558;2023-11-21T03:47:20;11.05;;;6.22;;
68806;SDS011;55800;54.272;18.558;2023-11-21T03:49:50;8.23;;;5.43;;
68806;SDS011;55800;54.272;18.558;2023-11-21T03:52:19;8.60;;;5.32;;
68806;SDS011;55800;54.272;18.558;2023-11-21T03:54:49;9.68;;;5.25;;
68806;SDS011;55800;54.272;18.558;2023-11-21T03:57:19;10.25;;;6.30;;
68806;SDS011;55800;54.272;18.558;2023-11-21T03:59:49;9.48;;;5.20;;
68806;SDS011;55800;54.272;18.558;2023-11-21T04:02:18;7.88;;;5.53;;
68806;SDS011;55800;54.272;18.558;2023-11-21T04:04:49;7.15;;;4.85;;
68806;SDS011;55800;54.272;18.558;2023-11-21T04:07:19;10.45;;;5.70;;
68806;SDS011;55800;54.272;18.558;2023-11-21T04:09:49;12.38;;;6.43;;
68806;SDS011;55800;54.272;18.558;2023-11-21T04:12:19;9.73;;;5.60;;
68806;SDS011;55800;54.272;18.558;2023-11-21T04:14:49;10.02;;;5.97;;
68806;SDS011;55800;54.272;18.558;2023-11-21T04:17:21;9.10;;;5.57;;
68806;SDS011;55800;54.272;18.558;2023-11-21T04:19:51;11.75;;;6.15;;
68806;SDS011;55800;54.272;18.558;2023-11-21T04:22:20;9.57;;;6.38;;
68806;SDS011;55800;54.272;18.558;2023-11-21T04:24:50;10.05;;;5.20;;
68806;SDS011;55800;54.272;18.558;2023-11-21T04:27:20;6.45;;;5.20;;
68806;SDS011;55800;54.272;18.558;2023-11-21T04:29:50;8.82;;;5.43;;
68806;SDS011;55800;54.272;18.558;2023-11-21T04:32:19;11.15;;;6.53;;
68806;SDS011;55800;54.272;18.558;2023-11-21T04:34:48;14.52;;;5.75;;
68806;SDS011;55800;54.272;18.558;2023-11-21T04:37:18;14.23;;;7.32;;
68806;SDS011;55800;54.272;18.558;2023-11-21T04:39:47;13.30;;;6.65;;
68806;SDS011;55800;54.272;18.558;2023-11-21T04:42:17;9.52;;;6.85;;
68806;SDS011;55800;54.272;18.558;2023-11-21T04:44:48;12.30;;;7.78;;
68806;SDS011;55800;54.272;18.558;2023-11-21T04:47:19;10.23;;;6.97;;
68806;SDS011;55800;54.272;18.558;2023-11-21T04:49:48;9.82;;;6.47;;
68806;SDS011;55800;54.272;18.558;2023-11-21T04:52:19;12.88;;;6.43;;
68806;SDS011;55800;54.272;18.558;2023-11-21T04:54:48;12.63;;;6.78;;
68806;SDS011;55800;54.272;18.558;2023-11-21T04:57:18;13.48;;;7.15;;
68806;SDS011;55800;54.272;18.558;2023-11-21T04:59:49;11.95;;;6.43;;
68806;SDS011;55800;54.272;18.558;2023-11-21T05:02:18;12.98;;;7.38;;
68806;SDS011;55800;54.272;18.558;2023-11-21T05:05:01;11.85;;;7.05;;
68806;SDS011;55800;54.272;18.558;2023-11-21T05:07:33;10.27;;;6.45;;
68806;SDS011;55800;54.272;18.558;2023-11-21T05:10:04;14.25;;;7.05;;
68806;SDS011;55800;54.272;18.558;2023-11-21T05:12:38;11.60;;;7.97;;
68806;SDS011;55800;54.272;18.558;2023-11-21T05:15:10;10.15;;;6.53;;
68806;SDS011;55800;54.272;18.558;2023-11-21T05:17:44;11.98;;;7.05;;
68806;SDS011;55800;54.272;18.558;2023-11-21T05:20:17;10.55;;;6.65;;
68806;SDS011;55800;54.272;18.558;2023-11-21T05:22:48;17.33;;;7.47;;
68806;SDS011;55800;54.272;18.558;2023-11-21T05:25:18;11.52;;;6.22;;
68806;SDS011;55800;54.272;18.558;2023-11-21T05:27:47;11.38;;;6.90;;
68806;SDS011;55800;54.272;18.558;2023-11-21T05:30:18;11.68;;;6.78;;
68806;SDS011;55800;54.272;18.558;2023-11-21T05:32:50;11.02;;;6.38;;
68806;SDS011;55800;54.272;18.558;2023-11-21T05:35:19;12.32;;;6.30;;
68806;SDS011;55800;54.272;18.558;2023-11-21T05:37:48;11.52;;;6.47;;
68806;SDS011;55800;54.272;18.558;2023-11-21T05:40:18;15.40;;;7.18;;
68806;SDS011;55800;54.272;18.558;2023-11-21T05:42:50;9.25;;;5.78;;
68806;SDS011;55800;54.272;18.558;2023-11-21T05:45:21;11.38;;;6.18;;
68806;SDS011;55800;54.272;18.558;2023-11-21T05:47:51;13.45;;;7.03;;
68806;SDS011;55800;54.272;18.558;2023-11-21T05:50:20;11.82;;;5.70;;
68806;SDS011;55800;54.272;18.558;2023-11-21T05:52:50;11.15;;;7.10;;
68806;SDS011;55800;54.272;18.558;2023-11-21T05:55:22;10.65;;;6.93;;
68806;SDS011;55800;54.272;18.558;2023-11-21T05:57:53;8.80;;;6.10;;
68806;SDS011;55800;54.272;18.558;2023-11-21T06:00:24;15.52;;;6.55;;
68806;SDS011;55800;54.272;18.558;2023-11-21T06:02:54;12.95;;;6.68;;
68806;SDS011;55800;54.272;18.558;2023-11-21T06:05:25;12.27;;;6.45;;
68806;SDS011;55800;54.272;18.558;2023-11-21T06:07:55;15.55;;;7.25;;
68806;SDS011;55800;54.272;18.558;2023-11-21T06:10:26;12.15;;;5.65;;
68806;SDS011;55800;54.272;18.558;2023-11-21T06:12:56;10.18;;;6.55;;
68806;SDS011;55800;54.272;18.558;2023-11-21T06:15:31;13.50;;;7.28;;
68806;SDS011;55800;54.272;18.558;2023-11-21T06:18:01;11.85;;;6.80;;
68806;SDS011;55800;54.272;18.558;2023-11-21T06:20:32;11.70;;;7.32;;
68806;SDS011;55800;54.272;18.558;2023-11-21T06:23:03;10.30;;;7.30;;
68806;SDS011;55800;54.272;18.558;2023-11-21T06:25:33;12.00;;;6.45;;
68806;SDS011;55800;54.272;18.558;2023-11-21T06:28:03;11.20;;;6.97;;
68806;SDS011;55800;54.272;18.558;2023-11-21T06:33:04;12.82;;;6.80;;
68806;SDS011;55800;54.272;18.558;2023-11-21T06:35:34;16.13;;;7.35;;
68806;SDS011;55800;54.272;18.558;2023-11-21T06:38:03;14.65;;;7.97;;
68806;SDS011;55800;54.272;18.558;2023-11-21T06:40:33;9.93;;;6.95;;
68806;SDS011;55800;54.272;18.558;2023-11-21T06:43:02;13.48;;;7.93;;
68806;SDS011;55800;54.272;18.558;2023-11-21T06:45:35;11.73;;;6.88;;
68806;SDS011;55800;54.272;18.558;2023-11-21T06:48:05;13.63;;;7.45;;
68806;SDS011;55800;54.272;18.558;2023-11-21T06:50:35;12.98;;;6.82;;
68806;SDS011;55800;54.272;18.558;2023-11-21T06:53:04;14.27;;;7.18;;
68806;SDS011;55800;54.272;18.558;2023-11-21T06:55:35;10.80;;;6.53;;
68806;SDS011;55800;54.272;18.558;2023-11-21T06:58:05;11.52;;;6.65;;
68806;SDS011;55800;54.272;18.558;2023-11-21T07:00:36;9.93;;;6.75;;
68806;SDS011;55800;54.272;18.558;2023-11-21T07:03:05;11.30;;;6.47;;
68806;SDS011;55800;54.272;18.558;2023-11-21T07:08:04;10.18;;;6.65;;
68806;SDS011;55800;54.272;18.558;2023-11-21T07:10:35;9.10;;;7.05;;
68806;SDS011;55800;54.272;18.558;2023-11-21T07:13:05;12.85;;;7.68;;
68806;SDS011;55800;54.272;18.558;2023-11-21T07:15:38;16.92;;;6.63;;
68806;SDS011;55800;54.272;18.558;2023-11-21T07:18:07;14.35;;;7.80;;
68806;SDS011;55800;54.272;18.558;2023-11-21T07:20:37;13.23;;;7.22;;
68806;SDS011;55800;54.272;18.558;2023-11-21T07:23:06;13.32;;;6.80;;
68806;SDS011;55800;54.272;18.558;2023-11-21T07:25:35;11.85;;;6.60;;
68806;SDS011;55800;54.272;18.558;2023-11-21T07:28:05;9.43;;;6.57;;
68806;SDS011;55800;54.272;18.558;2023-11-21T07:30:34;10.98;;;6.57;;
68806;SDS011;55800;54.272;18.558;2023-11-21T07:33:06;13.02;;;7.35;;
68806;SDS011;55800;54.272;18.558;2023-11-21T07:35:35;11.25;;;6.85;;
68806;SDS011;55800;54.272;18.558;2023-11-21T07:38:04;10.60;;;7.28;;
68806;SDS011;55800;54.272;18.558;2023-11-21T07:40:34;10.90;;;5.70;;
68806;SDS011;55800;54.272;18.558;2023-11-21T07:43:03;10.98;;;6.95;;
68806;SDS011;55800;54.272;18.558;2023-11-21T07:45:34;13.85;;;7.72;;
68806;SDS011;55800;54.272;18.558;2023-11-21T07:48:04;8.85;;;6.47;;
68806;SDS011;55800;54.272;18.558;2023-11-21T07:50:35;9.73;;;6.82;;
68806;SDS011;55800;54.272;18.558;2023-11-21T07:53:04;12.68;;;7.22;;
68806;SDS011;55800;54.272;18.558;2023-11-21T07:55:34;12.98;;;7.18;;
68806;SDS011;55800;54.272;18.558;2023-11-21T07:58:03;13.00;;;8.85;;
68806;SDS011;55800;54.272;18.558;2023-11-21T08:00:32;13.52;;;6.50;;
68806;SDS011;55800;54.272;18.558;2023-11-21T08:03:02;13.88;;;7.50;;
68806;SDS011;55800;54.272;18.558;2023-11-21T08:05:33;11.20;;;6.57;;
68806;SDS011;55800;54.272;18.558;2023-11-21T08:08:03;10.93;;;7.05;;
68806;SDS011;55800;54.272;18.558;2023-11-21T08:10:34;9.63;;;5.85;;
68806;SDS011;55800;54.272;18.558;2023-11-21T08:13:03;8.90;;;5.72;;
68806;SDS011;55800;54.272;18.558;2023-11-21T08:15:33;9.95;;;6.43;;
68806;SDS011;55800;54.272;18.558;2023-11-21T08:18:03;11.27;;;7.50;;
68806;SDS011;55800;54.272;18.558;2023-11-21T08:20:36;11.25;;;7.07;;
68806;SDS011;55800;54.272;18.558;2023-11-21T08:23:06;11.40;;;6.57;;
68806;SDS011;55800;54.272;18.558;2023-11-21T08:25:36;15.38;;;6.47;;
68806;SDS011;55800;54.272;18.558;2023-11-21T08:28:05;11.68;;;6.05;;
68806;SDS011;55800;54.272;18.558;2023-11-21T08:30:35;14.43;;;6.28;;
68806;SDS011;55800;54.272;18.558;2023-11-21T08:35:37;8.98;;;6.03;;
68806;SDS011;55800;54.272;18.558;2023-11-21T08:38:08;10.23;;;7.25;;
68806;SDS011;55800;54.272;18.558;2023-11-21T08:40:38;12.45;;;6.60;;
68806;SDS011;55800;54.272;18.558;2023-11-21T08:43:09;10.45;;;5.70;;
68806;SDS011;55800;54.272;18.558;2023-11-21T08:45:39;8.35;;;5.65;;
68806;SDS011;55800;54.272;18.558;2023-11-21T08:48:08;10.88;;;7.00;;
68806;SDS011;55800;54.272;18.558;2023-11-21T08:50:40;13.00;;;6.57;;
68806;SDS011;55800;54.272;18.558;2023-11-21T08:53:10;9.80;;;6.35;;
68806;SDS011;55800;54.272;18.558;2023-11-21T08:55:39;5.60;;;5.00;;
68806;SDS011;55800;54.272;18.558;2023-11-21T08:58:09;11.90;;;5.75;;
68806;SDS011;55800;54.272;18.558;2023-11-21T09:00:39;13.82;;;6.45;;
68806;SDS011;55800;54.272;18.558;2023-11-21T09:03:08;9.60;;;6.35;;
68806;SDS011;55800;54.272;18.558;2023-11-21T09:05:38;8.05;;;5.78;;
68806;SDS011;55800;54.272;18.558;2023-11-21T09:08:09;11.02;;;6.07;;
68806;SDS011;55800;54.272;18.558;2023-11-21T09:10:39;9.18;;;7.05;;
68806;SDS011;55800;54.272;18.558;2023-11-21T09:13:10;8.07;;;5.93;;
68806;SDS011;55800;54.272;18.558;2023-11-21T09:15:39;9.23;;;5.90;;
68806;SDS011;55800;54.272;18.558;2023-11-21T09:18:10;8.18;;;5.93;;
68806;SDS011;55800;54.272;18.558;2023-11-21T09:20:44;7.95;;;5.28;;
68806;SDS011;55800;54.272;18.558;2023-11-21T09:23:14;8.52;;;5.13;;
68806;SDS011;55800;54.272;18.558;2023-11-21T09:25:43;6.75;;;4.45;;
68806;SDS011;55800;54.272;18.558;2023-11-21T09:28:15;9.13;;;4.90;;
68806;SDS011;55800;54.272;18.558;2023-11-21T09:30:45;9.52;;;5.10;;
68806;SDS011;55800;54.272;18.558;2023-11-21T09:33:16;7.25;;;5.43;;
68806;SDS011;55800;54.272;18.558;2023-11-21T09:35:53;14.32;;;5.25;;
68806;SDS011;55800;54.272;18.558;2023-11-21T09:38:22;7.95;;;3.80;;
68806;SDS011;55800;54.272;18.558;2023-11-21T09:40:51;6.97;;;4.93;;
68806;SDS011;55800;54.272;18.558;2023-11-21T09:43:21;7.85;;;4.90;;
68806;SDS011;55800;54.272;18.558;2023-11-21T09:45:54;7.75;;;5.35;;
68806;SDS011;55800;54.272;18.558;2023-11-21T09:48:27;6.38;;;4.53;;
68806;SDS011;55800;54.272;18.558;2023-11-21T09:51:01;6.70;;;4.10;;
68806;SDS011;55800;54.272;18.558;2023-11-21T09:53:30;7.70;;;4.60;;
68806;SDS011;55800;54.272;18.558;2023-11-21T09:56:02;6.00;;;3.97;;
68806;SDS011;55800;54.272;18.558;2023-11-21T09:58:32;7.45;;;4.55;;
68806;SDS011;55800;54.272;18.558;2023-11-21T10:01:02;5.72;;;3.78;;
68806;SDS011;55800;54.272;18.558;2023-11-21T10:03:35;5.38;;;4.20;;
68806;SDS011;55800;54.272;18.558;2023-11-21T10:06:07;6.60;;;4.65;;
68806;SDS011;55800;54.272;18.558;2023-11-21T10:08:37;9.75;;;4.93;;
68806;SDS011;55800;54.272;18.558;2023-11-21T10:11:19;6.13;;;4.65;;
68806;SDS011;55800;54.272;18.558;2023-11-21T10:13:52;9.23;;;4.68;;
68806;SDS011;55800;54.272;18.558;2023-11-21T10:16:25;8.23;;;5.18;;
68806;SDS011;55800;54.272;18.558;2023-11-21T10:18:55;8.88;;;5.90;;
68806;SDS011;55800;54.272;18.558;2023-11-21T10:21:39;5.88;;;4.72;;
68806;SDS011;55800;54.272;18.558;2023-11-21T10:24:08;6.80;;;4.43;;
68806;SDS011;55800;54.272;18.558;2023-11-21T10:26:39;9.48;;;5.03;;
68806;SDS011;55800;54.272;18.558;2023-11-21T10:29:19;7.93;;;5.03;;
68806;SDS011;55800;54.272;18.558;2023-11-21T10:31:49;6.95;;;4.40;;
68806;SDS011;55800;54.272;18.558;2023-11-21T10:34:21;6.28;;;4.28;;
68806;SDS011;55800;54.272;18.558;2023-11-21T10:36:52;9.23;;;5.30;;
68806;SDS011;55800;54.272;18.558;2023-11-21T10:39:24;6.10;;;4.55;;
68806;SDS011;55800;54.272;18.558;2023-11-21T10:41:58;6.10;;;3.88;;
68806;SDS011;55800;54.272;18.558;2023-11-21T10:44:27;6.70;;;4.30;;
68806;SDS011;55800;54.272;18.558;2023-11-21T10:46:57;7.30;;;4.53;;
68806;SDS011;55800;54.272;18.558;2023-11-21T10:49:29;5.93;;;3.72;;
68806;SDS011;55800;54.272;18.558;2023-11-21T10:52:00;6.55;;;4.05;;
68806;SDS011;55800;54.272;18.558;2023-11-21T10:54:30;6.05;;;3.97;;
68806;SDS011;55800;54.272;18.558;2023-11-21T10:57:00;7.55;;;4.85;;
68806;SDS011;55800;54.272;18.558;2023-11-21T10:59:35;8.88;;;4.40;;
68806;SDS011;55800;54.272;18.558;2023-11-21T11:02:07;4.90;;;3.75;;
68806;SDS011;55800;54.272;18.558;2023-11-21T11:04:48;7.63;;;3.85;;
68806;SDS011;55800;54.272;18.558;2023-11-21T11:07:20;8.27;;;4.55;;
68806;SDS011;55800;54.272;18.558;2023-11-21T11:09:53;6.05;;;4.25;;
68806;SDS011;55800;54.272;18.558;2023-11-21T11:14:54;5.85;;;4.53;;
68806;SDS011;55800;54.272;18.558;2023-11-21T11:17:25;5.47;;;3.53;;
68806;SDS011;55800;54.272;18.558;2023-11-21T11:19:55;7.82;;;4.32;;
68806;SDS011;55800;54.272;18.558;2023-11-21T11:22:32;7.18;;;4.57;;
68806;SDS011;55800;54.272;18.558;2023-11-21T11:25:14;5.22;;;3.63;;
68806;SDS011;55800;54.272;18.558;2023-11-21T11:27:59;5.82;;;3.80;;
68806;SDS011;55800;54.272;18.558;2023-11-21T11:30:37;8.90;;;4.93;;
68806;SDS011;55800;54.272;18.558;2023-11-21T11:33:17;7.32;;;4.72;;
68806;SDS011;55800;54.272;18.558;2023-11-21T11:35:57;8.50;;;5.30;;
68806;SDS011;55800;54.272;18.558;2023-11-21T11:38:33;7.97;;;4.60;;
68806;SDS011;55800;54.272;18.558;2023-11-21T11:41:03;6.72;;;3.97;;
68806;SDS011;55800;54.272;18.558;2023-11-21T11:43:36;5.60;;;3.90;;
68806;SDS011;55800;54.272;18.558;2023-11-21T11:46:11;6.93;;;4.10;;
68806;SDS011;55800;54.272;18.558;2023-11-21T11:48:42;10.25;;;5.90;;
68806;SDS011;55800;54.272;18.558;2023-11-21T11:51:12;8.13;;;4.55;;
68806;SDS011;55800;54.272;18.558;2023-11-21T11:53:46;7.28;;;4.70;;
68806;SDS011;55800;54.272;18.558;2023-11-21T11:56:19;8.63;;;5.10;;
68806;SDS011;55800;54.272;18.558;2023-11-21T11:58:54;5.57;;;4.35;;
68806;SDS011;55800;54.272;18.558;2023-11-21T12:01:24;7.38;;;4.03;;
68806;SDS011;55800;54.272;18.558;2023-11-21T12:07:01;6.95;;;4.30;;
68806;SDS011;55800;54.272;18.558;2023-11-21T12:09:34;6.88;;;4.25;;
68806;SDS011;55800;54.272;18.558;2023-11-21T12:12:05;6.35;;;4.68;;
68806;SDS011;55800;54.272;18.558;2023-11-21T12:14:36;6.97;;;4.53;;
68806;SDS011;55800;54.272;18.558;2023-11-21T12:17:06;5.43;;;4.00;;
68806;SDS011;55800;54.272;18.558;2023-11-21T12:19:36;7.40;;;4.57;;
68806;SDS011;55800;54.272;18.558;2023-11-21T12:22:05;11.82;;;5.05;;
68806;SDS011;55800;54.272;18.558;2023-11-21T12:24:36;7.10;;;5.28;;
68806;SDS011;55800;54.272;18.558;2023-11-21T12:27:05;6.10;;;4.25;;
68806;SDS011;55800;54.272;18.558;2023-11-21T12:29:35;8.98;;;4.95;;
68806;SDS011;55800;54.272;18.558;2023-11-21T12:32:05;8.23;;;4.07;;
68806;SDS011;55800;54.272;18.558;2023-11-21T12:37:05;6.00;;;3.85;;
68806;SDS011;55800;54.272;18.558;2023-11-21T12:39:36;5.40;;;4.53;;
68806;SDS011;55800;54.272;18.558;2023-11-21T12:42:05;5.18;;;3.45;;
68806;SDS011;55800;54.272;18.558;2023-11-21T12:44:35;8.10;;;4.00;;
68806;SDS011;55800;54.272;18.558;2023-11-21T12:47:08;8.73;;;4.15;;
68806;SDS011;55800;54.272;18.558;2023-11-21T12:49:42;7.88;;;4.50;;
68806;SDS011;55800;54.272;18.558;2023-11-21T12:52:11;5.93;;;3.70;;
68806;SDS011;55800;54.272;18.558;2023-11-21T12:54:43;5.15;;;3.28;;
68806;SDS011;55800;54.272;18.558;2023-11-21T12:57:16;8.52;;;5.30;;
68806;SDS011;55800;54.272;18.558;2023-11-21T12:59:45;6.63;;;4.38;;
68806;SDS011;55800;54.272;18.558;2023-11-21T13:02:16;5.55;;;3.72;;
68806;SDS011;55800;54.272;18.558;2023-11-21T13:04:51;9.40;;;4.55;;
68806;SDS011;55800;54.272;18.558;2023-11-21T13:07:20;7.93;;;4.95;;
68806;SDS011;55800;54.272;18.558;2023-11-21T13:09:53;8.63;;;5.40;;
68806;SDS011;55800;54.272;18.558;2023-11-21T13:12:23;9.02;;;5.38;;
68806;SDS011;55800;54.272;18.558;2023-11-21T13:14:52;5.18;;;4.32;;
68806;SDS011;55800;54.272;18.558;2023-11-21T13:17:21;8.48;;;4.93;;
68806;SDS011;55800;54.272;18.558;2023-11-21T13:19:52;8.95;;;4.78;;
68806;SDS011;55800;54.272;18.558;2023-11-21T13:22:21;8.48;;;4.63;;
68806;SDS011;55800;54.272;18.558;2023-11-21T13:24:53;6.00;;;4.07;;
68806;SDS011;55800;54.272;18.558;2023-11-21T13:27:24;8.25;;;5.22;;
68806;SDS011;55800;54.272;18.558;2023-11-21T13:34:53;7.07;;;4.13;;
68806;SDS011;55800;54.272;18.558;2023-11-21T13:37:22;5.95;;;3.72;;
68806;SDS011;55800;54.272;18.558;2023-11-21T13:39:56;8.23;;;4.95;;
68806;SDS011;55800;54.272;18.558;2023-11-21T13:42:26;8.57;;;4.50;;
68806;SDS011;55800;54.272;18.558;2023-11-21T13:44:56;18.50;;;4.97;;
68806;SDS011;55800;54.272;18.558;2023-11-21T13:47:25;9.45;;;5.38;;
68806;SDS011;55800;54.272;18.558;2023-11-21T13:49:58;8.57;;;4.70;;
68806;SDS011;55800;54.272;18.558;2023-11-21T13:52:29;7.65;;;4.63;;
68806;SDS011;55800;54.272;18.558;2023-11-21T13:55:02;7.90;;;4.82;;
68806;SDS011;55800;54.272;18.558;2023-11-21T13:57:35;9.10;;;5.68;;
68806;SDS011;55800;54.272;18.558;2023-11-21T14:02:38;9.65;;;5.05;;
68806;SDS011;55800;54.272;18.558;2023-11-21T14:05:10;11.43;;;5.35;;
68806;SDS011;55800;54.272;18.558;2023-11-21T14:07:41;10.43;;;5.35;;
68806;SDS011;55800;54.272;18.558;2023-11-21T14:10:16;8.65;;;5.22;;
68806;SDS011;55800;54.272;18.558;2023-11-21T14:12:48;8.95;;;4.90;;
68806;SDS011;55800;54.272;18.558;2023-11-21T14:15:19;10.77;;;5.97;;
68806;SDS011;55800;54.272;18.558;2023-11-21T14:17:49;8.52;;;5.75;;
68806;SDS011;55800;54.272;18.558;2023-11-21T14:20:18;8.05;;;5.05;;
68806;SDS011;55800;54.272;18.558;2023-11-21T14:22:48;13.85;;;5.50;;
68806;SDS011;55800;54.272;18.558;2023-11-21T14:25:19;8.55;;;4.60;;
68806;SDS011;55800;54.272;18.558;2023-11-21T14:27:49;8.10;;;5.47;;
68806;SDS011;55800;54.272;18.558;2023-11-21T14:30:19;12.43;;;5.60;;
68806;SDS011;55800;54.272;18.558;2023-11-21T14:32:49;11.60;;;5.32;;
68806;SDS011;55800;54.272;18.558;2023-11-21T14:37:48;12.63;;;5.55;;
68806;SDS011;55800;54.272;18.558;2023-11-21T14:40:19;9.27;;;5.60;;
68806;SDS011;55800;54.272;18.558;2023-11-21T14:42:51;11.93;;;5.75;;
68806;SDS011;55800;54.272;18.558;2023-11-21T14:45:24;7.53;;;5.15;;
68806;SDS011;55800;54.272;18.558;2023-11-21T14:47:54;10.32;;;4.97;;
68806;SDS011;55800;54.272;18.558;2023-11-21T14:50:33;8.40;;;4.95;;
68806;SDS011;55800;54.272;18.558;2023-11-21T14:53:15;10.73;;;5.55;;
68806;SDS011;55800;54.272;18.558;2023-11-21T14:55:59;10.40;;;5.82;;
68806;SDS011;55800;54.272;18.558;2023-11-21T14:58:31;11.57;;;6.22;;
68806;SDS011;55800;54.272;18.558;2023-11-21T15:00:59;10.00;;;5.65;;
68806;SDS011;55800;54.272;18.558;2023-11-21T15:03:30;14.57;;;5.15;;
68806;SDS011;55800;54.272;18.558;2023-11-21T15:06:10;10.27;;;6.10;;
68806;SDS011;55800;54.272;18.558;2023-11-21T15:08:54;9.68;;;6.47;;
68806;SDS011;55800;54.272;18.558;2023-11-21T15:11:48;17.80;;;6.90;;
68806;SDS011;55800;54.272;18.558;2023-11-21T15:14:22;13.35;;;7.53;;
68806;SDS011;55800;54.272;18.558;2023-11-21T15:16:53;13.45;;;8.25;;
68806;SDS011;55800;54.272;18.558;2023-11-21T15:19:26;15.18;;;7.88;;
68806;SDS011;55800;54.272;18.558;2023-11-21T15:21:58;15.25;;;8.45;;
68806;SDS011;55800;54.272;18.558;2023-11-21T15:24:28;18.30;;;7.72;;
68806;SDS011;55800;54.272;18.558;2023-11-21T15:26:59;13.50;;;7.72;;
68806;SDS011;55800;54.272;18.558;2023-11-21T15:29:30;14.23;;;7.93;;
68806;SDS011;55800;54.272;18.558;2023-11-21T15:32:01;12.43;;;6.30;;